Atlantic Chip Logo MyLaps Official Partner
Saturday, June 25, 2016
Registration Management Login

Results for Triathlon by the Sea
Olympic Triathlon
July 29th, 2007

 
                         PEI Triathlon by the Sea
    Stanhope Beach, PEI July 29th, 2007  9:00 A.M.  Weather: Sunny 25C
                        Race Director:  Tyler Read
              Timing & Results by Atlantic Chip Event Timing
                                     
                             Olympic_Triathlon
 
                           Age Group Competition
 -------Final Results-------------------------------------------------------    1500 Meter              40 Km                10 Km
                                                      Div                    ------SWIM------      -----BIKE/T1-----    -----RUN/T2-----
  Pos     Time    Name                  City          Total Div     No.      Ovr  Time  /100m      Ovr Time    Km/Hr    Ovr  Time   /km
 -------- ------- --------------------- ------------  ----- ----    ----     ----------------      -----------------    ----------------
       1 2:13:22   Jamie Nickerson       charlottet   1/9   M3039   643       2   21:58  1:28       1 1:07:37  36.1      1   43:48  4:56 
       2 2:21:13   Michael Eagles        Fredericto   1/10  M4049   674      12   26:33  1:47       3 1:08:45  35.5      2   45:55  5:10 
       3 2:23:42   Scott Dickieson       Hunter Riv   2/10  M4049   619      10   25:14  1:41       2 1:08:22  35.7     10   50:07  5:38 
       4 2:24:45   Marcos Lores          charlottet   2/9   M3039   630       4   24:18  1:38       8 1:14:24  32.8      3   46:04  5:11 
       5 2:25:47   Tim Houtsma           Bedford      3/9   M3039   606       1   21:45  1:27       7 1:14:10  32.9      9   49:52  5:37 
       6 2:27:34   Will Allanch          Moncton      4/9   M3039   682      15   27:24  1:50       4 1:11:56  33.9      5   48:15  5:26 
       7 2:27:48   Bryon Howard          Calgary      3/10  M4049   607       8   25:05  1:41       9 1:14:24  32.8      6   48:21  5:26 
       8 2:35:35   Greg Arsenault        Stratford    4/10  M4049   670      25   31:45  2:07      12 1:15:55  32.2      4   47:56  5:24 
       9 2:35:58   Brigitte Sabourin     Halifax      1/4   F3039   677       5   24:20  1:38      16 1:17:35  31.5     15   54:04  6:05 
      10 2:38:02   Jill Smith            Charlottet   1/2   F2029   689       6   24:29  1:38      13 1:16:06  32.1     24   57:28  6:28 
      11 2:38:10   Deanne Burnett        Charlottet   1/4   F4049   692      17   28:34  1:55      15 1:17:11  31.6     13   52:26  5:54 
      12 2:38:21   Corena Hughes         Charlottet   2/4   F4049   687      11   26:16  1:46      21 1:20:36  30.3     11   51:30  5:48 
      13 2:39:25   John Allanch          Dieppe       5/9   M3039   683      22   30:56  2:04       6 1:13:44  33.1     18   54:47  6:10 
      14 2:41:21   Ron MacDougall        Bloomfield   5/10  M4049   637      21   30:55  2:04      14 1:16:19  32.0     16   54:08  6:05 
      15 2:41:35   Paul Dalton           St. Edward   6/10  M4049   617      28   32:46  2:12      19 1:19:03  30.9      8   49:48  5:36 
      16 2:42:46   Maria Profit          Charlottet   2/2   F2029   613       3   21:59  1:28      22 1:22:30  29.6     27   58:17  6:33 
      17 2:42:59   Ben MacKay            Charlottet   1/1   M2029   690      24   31:07  2:05       5 1:13:43  33.1     26   58:10  6:33 
      18 2:43:25   Sean Flanagan         Charlottet   6/9   M3039   679       9   25:12  1:41      28 1:23:36  29.2     17   54:37  6:09 
      19 2:43:39   Philip Marsden        Toronton     7/10  M4049   659      20   30:49  2:04      18 1:18:57  30.9     14   53:54  6:04 
      20 2:44:09   D'Arcy Flynn          Emyvale      8/10  M4049   612      16   28:08  1:53      17 1:17:57  31.3     25   58:05  6:32 
      21 2:45:12   John William Doucette Charlottet   9/10  M4049   675      27   32:30  2:10      11 1:15:43  32.3     20   57:00  6:25 
      22 2:46:43   Jennifer Hoyt         Halifax      2/4   F3039   668       7   24:30  1:38      26 1:23:21  29.3     28   58:52  6:37 
      23 2:46:55   Jerry Mason           Cavendish    1/2   M5059   655      19   29:36  1:59      20 1:20:18  30.4     21   57:02  6:25 
      24 2:47:37   Sheldon Opps          Charlottet   7/9   M3039   636      26   31:52  2:08      29 1:23:54  29.1     12   51:52  5:50 
      25 2:50:46   Ellen Sherren         Charlottet   3/4   F3039   626      23   31:00  2:04      24 1:22:43  29.5     22   57:04  6:25 
      26 2:50:55   Paul Baglole          Meadow ban  10/10  M4049   618      33   39:34  2:39      25 1:22:52  29.5      7   48:29  5:27 
      27 2:53:24   Jeff Hemphill         Summerside   8/9   M3039   656      31   33:24  2:14      23 1:22:39  29.5     23   57:22  6:27 
      28 2:56:57   Pat Ellis             Charlottet   1/1   F5059   604      30   33:17  2:14      32 1:26:58  28.1     19   56:43  6:23 
      29 2:57:13   Carolyn Rowe- Turner  Summerside   4/4   F3039   640      13   27:00  1:48      33 1:28:43  27.5     30 1:01:31  6:55 
      30 2:57:49   Bonnie Smith          Summerside   3/4   F4049   615      29   32:50  2:12      31 1:25:49  28.5     29   59:10  6:39 
      31 3:01:54   Ernest Schleichkorn   Summerside   2/2   M5059   611      18   28:43  1:55      30 1:24:33  28.9     32 1:08:39  7:43 
      32 3:02:31   Cheryl Tanton         Summerside   4/4   F4049   669      32   33:46  2:16      27 1:23:36  29.2     31 1:05:10  7:20 
      33           Lawrence Brown        Charlottet   9/9   M3039   695      14   27:12  1:49      10 1:14:56  32.6                      

Results originally posted July 29th, 2007 at 8:58:33 pm
Atlantic Chip Sport Timing
32 Forest Road
Dartmouth, NS
B3A 2M3
Email: Troy Musseau
Copyright © 2016 Atlantic Chip Sport Timing
ChampionChip® and MYLAPS® name and logo copyright © MYLAPS
Current server time is 07:31:12 AM Atlantic Time
Page generated in 0.052 seconds